Time;durP1;ratioP1;P1;durP2;ratioP2;P2;SDS_P1;SDS_P2;PMS_P1;PMS_P2;Temp;Humidity;BMP_temperature;BMP_pressure;BME280_temperature;BME280_humidity;BME280_pressure;Samples;Min_cycle;Max_cycle;Signal;HPM_P1;HPM_P2
2022/04/22 00:01:27;;;;;;;;;;;;;;;11.07;46.53;99280.16;4385854;32;19982;-81
2022/04/22 00:03:55;;;;;;;;;;;;;;;11.18;46.31;99274.19;4385786;32;20337;-81
2022/04/22 00:06:21;;;;;;;;;;;;;;;11.23;45.96;99281.09;4385081;32;19979;-81
2022/04/22 00:08:48;;;;;;;;;;;;;;;11.24;46.38;99272.47;4384956;32;20004;-80
2022/04/22 00:11:30;;;;;;;;;;;;;;;11.07;46.87;99270.69;4386051;32;20372;-80
2022/04/22 00:13:58;;;;;;;;;;;;;;;11.29;46.88;99271.63;4385742;32;19986;-80
2022/04/22 00:16:27;;;;;;;;;;;;;;;11.34;46.96;99269.06;4385263;32;19982;-80
2022/04/22 00:18:54;;;;;;;;;;;;;;;11.34;46.59;99266.47;4385255;32;20340;-80
2022/04/22 00:21:21;;;;;;;;;;;;;;;11.29;47.44;99265.56;4385095;32;19982;-80
2022/04/22 00:23:49;;;;;;;;;;;;;;;11.42;46.67;99256.97;4382154;32;20359;-80
2022/04/22 00:26:16;;;;;;;;;;;;;;;11.51;46.31;99251.81;4385602;32;20001;-81
2022/04/22 00:28:43;;;;;;;;;;;;;;;11.39;46.72;99257.84;4385501;32;19982;-81
2022/04/22 00:31:10;;;;;;;;;;;;;;;11.50;46.14;99255.28;4385654;32;20032;-81
2022/04/22 00:33:37;;;;;;;;;;;;;;;11.59;46.38;99250.12;4385859;32;20010;-80
2022/04/22 00:36:04;;;;;;;;;;;;;;;11.44;46.32;99247.50;4386129;32;20017;-80
2022/04/22 00:38:31;;;;;;;;;;;;;;;11.62;46.70;99244.97;4385332;32;20042;-81
2022/04/22 00:40:59;;;;;;;;;;;;;;;11.74;46.24;99238.94;4385748;32;20272;-80
2022/04/22 00:43:26;;;;;;;;;;;;;;;11.67;46.77;99236.31;4385741;32;20041;-81
2022/04/22 00:45:53;;;;;;;;;;;;;;;11.55;47.63;99229.38;4385374;32;20324;-81
2022/04/22 00:48:21;;;;;;;;;;;;;;;11.60;47.09;99231.13;4384375;32;19978;-81
2022/04/22 00:50:47;;;;;;;;;;;;;;;11.66;46.36;99229.41;4397282;32;20005;-81
2022/04/22 00:53:16;;;;;;;;;;;;;;;11.63;46.85;99220.75;4395840;32;20054;-80
2022/04/22 00:55:43;;;;;;;;;;;;;;;11.66;46.37;99219.91;4385632;32;19978;-80
2022/04/22 00:58:10;;;;;;;;;;;;;;;11.48;47.63;99215.53;4385292;32;20135;-80
2022/04/22 01:00:38;;;;;;;;;;;;;;;11.49;47.20;99219.88;4384503;32;19978;-81
2022/04/22 01:03:05;;;;;;;;;;;;;;;11.60;46.97;99215.56;4385643;32;19997;-81
2022/04/22 01:11:05;;;;;;;;;;;;;;;11.62;46.88;99203.47;4369362;32;20458;-81
2022/04/22 01:13:32;;;;;;;;;;;;;;;11.79;47.35;99207.81;4045966;32;10004316;-81
2022/04/22 01:15:59;;;;;;;;;;;;;;;11.75;47.24;99193.13;4340861;33;20002;-81
2022/04/22 01:18:26;;;;;;;;;;;;;;;11.74;47.02;99196.56;4338614;33;20388;-81
2022/04/22 01:20:53;;;;;;;;;;;;;;;11.66;47.80;99193.13;4340234;33;19991;-81
2022/04/22 01:23:20;;;;;;;;;;;;;;;11.44;48.17;99193.06;4338777;33;20066;-81
2022/04/22 01:25:46;;;;;;;;;;;;;;;11.51;48.32;99189.62;4340208;32;20805;-81
2022/04/22 01:28:13;;;;;;;;;;;;;;;11.41;48.19;99193.06;4340073;32;19983;-81
2022/04/22 01:30:40;;;;;;;;;;;;;;;11.67;47.65;99185.31;4340541;33;20463;-81
2022/04/22 01:33:07;;;;;;;;;;;;;;;11.76;47.36;99184.47;4340528;32;19995;-81
2022/04/22 01:35:34;;;;;;;;;;;;;;;11.69;47.21;99178.44;4338684;33;19994;-81
2022/04/22 01:38:00;;;;;;;;;;;;;;;11.78;47.48;99172.41;4340506;32;20598;-81
2022/04/22 01:40:27;;;;;;;;;;;;;;;11.96;47.02;99172.41;4340358;32;20318;-81
2022/04/22 01:42:55;;;;;;;;;;;;;;;11.81;47.71;99169.81;4339730;33;20045;-80
2022/04/22 01:45:22;;;;;;;;;;;;;;;11.79;47.96;99166.34;4340802;33;20022;-80
2022/04/22 01:47:49;;;;;;;;;;;;;;;11.70;48.14;99158.53;4337890;32;20030;-81
2022/04/22 01:50:16;;;;;;;;;;;;;;;11.64;48.58;99154.22;4362399;32;19983;-80
2022/04/22 01:52:45;;;;;;;;;;;;;;;11.91;47.68;99150.81;4384895;32;20010;-80
2022/04/22 01:55:12;;;;;;;;;;;;;;;11.98;47.41;99144.75;4385402;32;19986;-79
2022/04/22 01:57:39;;;;;;;;;;;;;;;11.96;47.44;99138.69;4385089;32;19985;-80
2022/04/22 02:00:06;;;;;;;;;;;;;;;11.95;47.58;99128.31;4384906;32;19990;-80
2022/04/22 02:02:33;;;;;;;;;;;;;;;11.87;47.99;99128.34;4384166;32;20005;-81
2022/04/22 02:05:01;;;;;;;;;;;;;;;11.83;47.97;99134.34;4384097;32;20041;-80
2022/04/22 02:07:28;;;;;;;;;;;;;;;11.83;47.64;99130.00;4384608;32;20837;-80
2022/04/22 02:09:55;;;;;;;;;;;;;;;11.86;47.39;99121.41;4384057;32;20692;-81
2022/04/22 02:12:22;;;;;;;;;;;;;;;11.65;47.80;99130.03;4383997;32;20037;-81
2022/04/22 02:14:49;;;;;;;;;;;;;;;11.84;47.59;99134.41;4384750;32;19986;-80
2022/04/22 02:17:18;;;;;;;;;;;;;;;11.76;48.12;99132.63;4384569;32;19993;-80
2022/04/22 02:19:45;;;;;;;;;;;;;;;11.81;47.82;99125.72;4383774;32;20024;-80
2022/04/22 02:22:13;;;;;;;;;;;;;;;11.78;47.86;99120.53;4384555;32;19982;-81
2022/04/22 02:24:40;;;;;;;;;;;;;;;11.81;47.96;99120.53;4378780;32;20394;-81
2022/04/22 02:29:52;;;;;;;;;;;;;;;11.51;49.18;99117.06;4388737;32;19990;-80
2022/04/22 02:32:19;;;;;;;;;;;;;;;11.74;47.99;99118.78;4367893;32;20434;-81
2022/04/22 02:34:46;;;;;;;;;;;;;;;11.61;48.46;99113.62;4385919;32;20063;-81
2022/04/22 02:37:15;;;;;;;;;;;;;;;11.66;48.47;99125.72;4386484;32;20647;-81
2022/04/22 02:39:42;;;;;;;;;;;;;;;11.47;48.85;99115.34;4386428;32;20030;-80
2022/04/22 02:47:40;;;;;;;;;;;;;;;11.71;48.70;99098.03;4382654;32;20316;-81
2022/04/22 02:50:07;;;;;;;;;;;;;;;11.78;48.69;99099.78;4381841;32;20037;-81
2022/04/22 02:52:36;;;;;;;;;;;;;;;11.78;49.29;99099.78;4385425;32;20001;-81
2022/04/22 02:55:03;;;;;;;;;;;;;;;11.71;49.42;99098.03;4386568;32;20005;-81
2022/04/22 02:57:30;;;;;;;;;;;;;;;11.90;48.83;99096.34;4386183;32;20021;-81
2022/04/22 02:59:57;;;;;;;;;;;;;;;11.73;49.61;99096.31;4386258;32;19993;-81
2022/04/22 03:02:25;;;;;;;;;;;;;;;11.79;49.58;99085.94;4386780;32;20021;-80
2022/04/22 03:04:53;;;;;;;;;;;;;;;11.74;49.95;99082.50;4386350;32;19994;-81
2022/04/22 03:07:20;;;;;;;;;;;;;;;11.84;50.10;99089.41;4385877;32;20309;-81
2022/04/22 03:09:46;;;;;;;;;;;;;;;11.88;49.86;99085.97;4385695;32;20026;-81
2022/04/22 03:12:14;;;;;;;;;;;;;;;11.83;49.92;99079.88;4385815;32;19986;-80
2022/04/22 03:14:43;;;;;;;;;;;;;;;12.01;48.91;99073.84;4386258;32;20355;-82
2022/04/22 03:17:10;;;;;;;;;;;;;;;11.92;49.98;99072.13;4385233;32;19970;-81
2022/04/22 03:19:38;;;;;;;;;;;;;;;11.82;50.27;99075.59;4362769;32;20005;-81
2022/04/22 03:22:04;;;;;;;;;;;;;;;12.00;49.80;99065.22;4386331;32;20689;-81
2022/04/22 03:24:31;;;;;;;;;;;;;;;11.93;49.84;99067.81;4386520;32;20019;-81
2022/04/22 03:26:58;;;;;;;;;;;;;;;12.08;48.92;99066.03;4386564;32;20316;-81
2022/04/22 03:29:26;;;;;;;;;;;;;;;12.10;49.27;99061.72;4385897;32;20390;-81
2022/04/22 03:31:54;;;;;;;;;;;;;;;11.84;50.09;99064.37;4386672;32;19990;-81
2022/04/22 03:34:22;;;;;;;;;;;;;;;12.05;49.37;99063.44;4386496;32;20320;-81
2022/04/22 03:36:49;;;;;;;;;;;;;;;12.13;49.10;99049.63;4385719;32;20257;-81
2022/04/22 03:39:16;;;;;;;;;;;;;;;12.05;49.86;99058.25;4381327;32;20281;-82
2022/04/22 03:41:43;;;;;;;;;;;;;;;12.22;49.50;99052.16;4369979;32;20414;-81
2022/04/22 03:44:10;;;;;;;;;;;;;;;12.30;49.34;99053.00;4371362;32;19970;-81
2022/04/22 03:46:37;;;;;;;;;;;;;;;12.31;48.70;99058.19;4368799;32;20321;-81
2022/04/22 03:49:04;;;;;;;;;;;;;;;12.32;49.35;99051.28;4368988;32;20005;-81
2022/04/22 03:51:32;;;;;;;;;;;;;;;12.46;48.39;99054.66;4363366;32;19994;-81
2022/04/22 03:53:58;;;;;;;;;;;;;;;12.49;45.78;99054.66;4385654;32;19990;-81
2022/04/22 03:59:11;;;;;;;;;;;;;;;12.61;44.46;99061.53;4386155;32;20034;-82
2022/04/22 04:01:38;;;;;;;;;;;;;;;12.75;43.54;99057.13;4386013;32;20042;-81
2022/04/22 04:04:05;;;;;;;;;;;;;;;12.80;43.21;99055.37;4385337;32;19983;-81
2022/04/22 04:06:32;;;;;;;;;;;;;;;12.75;43.26;99051.06;4386447;32;19990;-81
2022/04/22 04:17:15;;;;;;;;;;;;;;;12.96;42.37;99045.75;4378390;32;19979;-81
2022/04/22 04:25:13;;;;;;;;;;;;;;;12.93;42.31;99055.31;4385631;32;19983;-82
2022/04/22 04:27:40;;;;;;;;;;;;;;;12.87;42.30;99051.00;4386125;32;19990;-82
2022/04/22 04:30:07;;;;;;;;;;;;;;;13.19;41.12;99042.16;4385947;32;20017;-81
2022/04/22 04:32:34;;;;;;;;;;;;;;;12.94;42.30;99047.50;4385555;32;20405;-82
2022/04/22 04:35:01;;;;;;;;;;;;;;;13.20;41.90;99054.25;4391294;32;20047;-82
2022/04/22 04:37:28;;;;;;;;;;;;;;;13.16;41.68;99057.75;4401147;32;19982;-81
2022/04/22 04:39:58;;;;;;;;;;;;;;;13.16;41.71;99055.16;4400990;32;19987;-80
2022/04/22 04:42:26;;;;;;;;;;;;;;;13.23;42.30;99051.62;4400225;32;20036;-82
2022/04/22 04:44:53;;;;;;;;;;;;;;;13.23;41.72;99051.62;4400775;32;19996;-80
2022/04/22 04:47:20;;;;;;;;;;;;;;;13.29;40.71;99054.22;4397466;32;19993;-80
2022/04/22 04:49:47;;;;;;;;;;;;;;;13.03;41.88;99047.44;4406131;32;20048;-81
2022/04/22 04:52:14;;;;;;;;;;;;;;;12.84;42.35;99056.22;4400608;32;19982;-81
2022/04/22 04:54:40;;;;;;;;;;;;;;;12.93;41.96;99061.38;4399521;32;19982;-81
2022/04/22 04:57:07;;;;;;;;;;;;;;;12.80;41.77;99054.53;4400860;32;19973;-81
2022/04/22 04:59:34;;;;;;;;;;;;;;;13.10;41.91;99050.84;4400563;32;20062;-81
2022/04/22 05:02:01;;;;;;;;;;;;;;;13.21;42.44;99056.84;4400244;32;20003;-81
2022/04/22 05:04:28;;;;;;;;;;;;;;;13.11;42.59;99059.50;4400591;32;19982;-81
2022/04/22 05:06:56;;;;;;;;;;;;;;;13.34;41.79;99060.25;4388577;32;19986;-81
2022/04/22 05:09:23;;;;;;;;;;;;;;;13.32;41.81;99069.78;4369438;32;19986;-81
2022/04/22 05:11:50;;;;;;;;;;;;;;;13.08;43.20;99073.41;4370281;32;19982;-81
2022/04/22 05:14:19;;;;;;;;;;;;;;;13.36;42.83;99071.47;4370605;32;20005;-80
2022/04/22 05:16:46;;;;;;;;;;;;;;;13.33;42.35;99071.50;4360127;32;19991;-81
2022/04/22 05:19:13;;;;;;;;;;;;;;;13.27;41.56;99071.56;4350962;32;20030;-80
2022/04/22 05:21:40;;;;;;;;;;;;;;;13.16;41.41;99070.75;4355580;32;20050;-80
2022/04/22 05:24:07;;;;;;;;;;;;;;;13.20;41.84;99080.25;4355578;32;20065;-80
2022/04/22 05:26:34;;;;;;;;;;;;;;;13.17;41.67;99085.44;4352445;32;19979;-80
2022/04/22 05:29:01;;;;;;;;;;;;;;;13.11;41.59;99085.50;4355295;32;19987;-81
2022/04/22 05:34:14;;;;;;;;;;;;;;;13.12;41.53;99071.66;4355924;32;19994;-80
2022/04/22 05:36:41;;;;;;;;;;;;;;;13.10;41.29;99065.59;4364032;32;20022;-80
2022/04/22 05:39:08;;;;;;;;;;;;;;;13.19;41.21;99078.53;4053949;32;10004618;-80
2022/04/22 05:41:36;;;;;;;;;;;;;;;13.33;40.17;99081.91;4369430;32;20313;-80
2022/04/22 05:44:03;;;;;;;;;;;;;;;13.32;40.90;99069.78;4369292;32;19986;-80
2022/04/22 05:46:30;;;;;;;;;;;;;;;13.30;40.25;99076.72;4369865;32;20333;-80
2022/04/22 05:48:57;;;;;;;;;;;;;;;13.40;40.52;99073.22;4365887;32;20603;-81
2022/04/22 05:51:25;;;;;;;;;;;;;;;13.38;40.00;99058.50;4369319;32;19997;-80
2022/04/22 05:53:51;;;;;;;;;;;;;;;13.28;40.60;99057.69;4368350;32;19983;-80
2022/04/22 05:56:19;;;;;;;;;;;;;;;13.47;40.25;99048.87;4370130;32;20037;-80
2022/04/22 05:58:46;;;;;;;;;;;;;;;13.59;39.60;99047.94;4358502;32;19987;-80
2022/04/22 06:01:13;;;;;;;;;;;;;;;13.72;39.68;99048.69;4367275;32;19995;-80
2022/04/22 06:03:40;;;;;;;;;;;;;;;13.75;40.14;99053.81;4364294;32;20010;-80
2022/04/22 06:06:07;;;;;;;;;;;;;;;13.82;39.34;99060.72;4368331;32;20727;-79
2022/04/22 06:11:19;;;;;;;;;;;;;;;13.91;38.99;99052.81;4366712;32;20118;-81
2022/04/22 06:13:47;;;;;;;;;;;;;;;13.94;38.66;99044.97;4367688;32;20501;-80
2022/04/22 06:16:17;;;;;;;;;;;;;;;13.98;38.83;99043.19;4367852;32;19997;-80
2022/04/22 06:18:44;;;;;;;;;;;;;;;14.00;38.76;99037.97;4367179;32;19993;-79
2022/04/22 06:21:11;;;;;;;;;;;;;;;14.04;38.65;99034.44;4362874;32;19998;-78
2022/04/22 06:23:38;;;;;;;;;;;;;;;13.81;38.97;99032.09;4363609;32;19986;-78
2022/04/22 06:26:05;;;;;;;;;;;;;;;13.81;39.06;99037.28;4368264;32;20346;-78
2022/04/22 06:28:35;;;;;;;;;;;;;;;14.01;38.43;99031.88;4367619;32;20010;-78
2022/04/22 06:31:02;;;;;;;;;;;;;;;13.98;38.97;99029.34;4364306;32;19987;-78
2022/04/22 06:33:30;;;;;;;;;;;;;;;14.01;38.46;99034.47;4367058;32;20037;-79
2022/04/22 06:35:58;;;;;;;;;;;;;;;13.93;38.77;99035.44;4369049;32;19991;-79
2022/04/22 06:38:24;;;;;;;;;;;;;;;14.00;38.80;99031.03;4358610;32;19985;-78
2022/04/22 06:46:23;;;;;;;;;;;;;;;13.97;38.91;99018.03;4368569;32;19979;-79
2022/04/22 06:48:50;;;;;;;;;;;;;;;13.91;39.36;99012.91;4364271;32;19979;-79
2022/04/22 06:51:17;;;;;;;;;;;;;;;14.15;38.36;99022.19;4368909;32;19971;-79
2022/04/22 06:53:45;;;;;;;;;;;;;;;14.13;38.26;99023.94;4367226;32;20003;-79
2022/04/22 06:56:14;;;;;;;;;;;;;;;14.14;37.98;99030.88;4381437;32;20041;-78
2022/04/22 06:58:41;;;;;;;;;;;;;;;14.23;38.17;99028.19;4377700;32;19990;-78
2022/04/22 07:01:09;;;;;;;;;;;;;;;14.08;38.26;99015.34;4376975;32;20061;-79
2022/04/22 07:03:57;;;;;;;;;;;;;;;14.25;37.95;99023.81;4390410;32;20036;-79
2022/04/22 07:06:24;;;;;;;;;;;;;;;14.27;38.08;99024.66;4384141;32;19997;-79
2022/04/22 07:08:51;;;;;;;;;;;;;;;13.98;38.58;99024.13;4383843;32;20013;-79
2022/04/22 07:11:30;;;;;;;;;;;;;;;14.17;38.52;99025.66;4377531;32;19991;-79
2022/04/22 07:13:57;;;;;;;;;;;;;;;14.02;38.80;99025.81;4394761;32;19983;-79
2022/04/22 07:16:24;;;;;;;;;;;;;;;14.07;38.69;99031.81;4373242;32;20276;-79
2022/04/22 07:18:59;;;;;;;;;;;;;;;14.11;38.59;99030.91;4374211;32;19982;-79
2022/04/22 07:21:27;;;;;;;;;;;;;;;14.06;38.36;99027.50;4385807;32;20037;-80
2022/04/22 07:23:55;;;;;;;;;;;;;;;14.11;38.49;99031.78;4385963;32;20042;-81
2022/04/22 07:26:22;;;;;;;;;;;;;;;14.11;39.26;99036.12;4381963;32;20288;-80
2022/04/22 07:28:49;;;;;;;;;;;;;;;14.08;40.51;99025.75;4383306;32;19974;-80
2022/04/22 07:31:18;;;;;;;;;;;;;;;14.03;40.67;99027.53;4384037;32;20486;-80
2022/04/22 07:33:45;;;;;;;;;;;;;;;14.18;40.79;99016.94;4386720;32;20024;-80
2022/04/22 07:36:12;;;;;;;;;;;;;;;14.25;41.65;99018.59;4392714;32;20343;-80
2022/04/22 07:38:39;;;;;;;;;;;;;;;14.30;41.73;99022.00;4389721;32;20651;-79
2022/04/22 07:41:06;;;;;;;;;;;;;;;14.31;42.03;99023.72;4386063;32;19991;-80
2022/04/22 07:49:09;;;;;;;;;;;;;;;14.32;43.78;99019.38;4378070;32;20037;-81
2022/04/22 07:51:35;;;;;;;;;;;;;;;14.35;44.75;99012.38;4385051;32;20070;-81
2022/04/22 07:54:02;;;;;;;;;;;;;;;14.25;44.74;99010.78;4384007;32;19990;-80
2022/04/22 07:56:29;;;;;;;;;;;;;;;14.44;45.16;99008.81;4386066;32;20730;-80
2022/04/22 07:58:56;;;;;;;;;;;;;;;14.37;47.19;99013.25;4393130;32;19987;-81
2022/04/22 08:01:24;;;;;;;;;;;;;;;14.40;45.11;99017.56;4385828;32;20046;-81
2022/04/22 08:03:53;;;;;;;;;;;;;;;14.37;45.32;99015.84;4386142;32;19987;-80
2022/04/22 08:06:20;;;;;;;;;;;;;;;14.27;46.64;99011.63;4386143;32;19986;-82
2022/04/22 08:08:48;;;;;;;;;;;;;;;14.36;44.74;99011.53;4384013;32;19998;-81
2022/04/22 08:11:15;;;;;;;;;;;;;;;14.09;46.35;99017.06;4379430;32;20000;-81
2022/04/22 08:13:42;;;;;;;;;;;;;;;14.10;46.15;99018.75;4385640;32;20021;-82
2022/04/22 08:16:09;;;;;;;;;;;;;;;14.11;46.90;99016.16;4385544;32;20271;-82
2022/04/22 08:18:36;;;;;;;;;;;;;;;14.05;48.49;99021.44;4384688;32;19978;-81
2022/04/22 08:21:03;;;;;;;;;;;;;;;14.01;48.81;99013.66;4385764;32;19982;-82
2022/04/22 08:23:30;;;;;;;;;;;;;;;13.73;49.58;99008.78;4385811;32;19986;-82
2022/04/22 08:25:57;;;;;;;;;;;;;;;13.90;49.39;99009.44;4385143;32;20001;-81
2022/04/22 08:28:24;;;;;;;;;;;;;;;13.72;49.77;99017.47;4395168;32;19987;-81
2022/04/22 08:30:51;;;;;;;;;;;;;;;13.77;50.04;99015.66;4385312;32;20328;-81
2022/04/22 08:33:18;;;;;;;;;;;;;;;13.79;51.16;99006.12;4385315;32;19997;-81
2022/04/22 08:35:45;;;;;;;;;;;;;;;13.88;51.75;99008.63;4386084;32;19982;-81
2022/04/22 08:38:11;;;;;;;;;;;;;;;13.70;51.64;99003.59;4385348;32;19982;-81
2022/04/22 08:40:38;;;;;;;;;;;;;;;13.82;51.62;99000.88;4382509;32;19990;-82
2022/04/22 08:43:06;;;;;;;;;;;;;;;13.67;53.04;98998.44;4385044;32;19986;-81
2022/04/22 08:45:33;;;;;;;;;;;;;;;13.52;53.37;98998.56;4385915;32;19987;-81
2022/04/22 08:50:49;;;;;;;;;;;;;;;13.56;54.45;98979.47;4385758;32;20009;-82
2022/04/22 08:53:18;;;;;;;;;;;;;;;13.77;54.83;98981.84;4396980;32;20028;-81
2022/04/22 08:55:46;;;;;;;;;;;;;;;13.84;54.99;98980.88;4396180;32;20683;-81
2022/04/22 08:58:12;;;;;;;;;;;;;;;13.91;54.83;98982.56;4395618;32;20061;-81
2022/04/22 09:00:41;;;;;;;;;;;;;;;13.94;54.98;98977.34;4386459;32;20002;-82
2022/04/22 09:03:09;;;;;;;;;;;;;;;13.94;56.22;98971.25;4383988;32;19996;-81
2022/04/22 09:05:36;;;;;;;;;;;;;;;13.94;56.24;98966.03;4384931;32;20001;-81
2022/04/22 09:08:03;;;;;;;;;;;;;;;14.09;56.50;98955.44;4395606;32;19986;-80
2022/04/22 09:10:30;;;;;;;;;;;;;;;14.04;58.12;98951.19;4383584;32;20060;-81
2022/04/22 09:12:57;;;;;;;;;;;;;;;13.84;58.52;98944.47;4383075;32;20328;-81
2022/04/22 09:15:26;;;;;;;;;;;;;;;13.90;58.34;98947.00;4370605;32;19990;-81
2022/04/22 09:18:00;;;;;;;;;;;;;;;14.15;58.74;98949.31;4369363;32;20009;-80
2022/04/22 09:20:31;;;;;;;;;;;;;;;14.12;58.46;98939.81;4370797;32;20001;-79
2022/04/22 09:22:58;;;;;;;;;;;;;;;14.13;57.69;98932.84;4369470;32;19991;-80
2022/04/22 09:25:26;;;;;;;;;;;;;;;14.06;58.68;98931.22;4377756;32;19982;-80
2022/04/22 09:27:53;;;;;;;;;;;;;;;13.93;58.34;98928.75;4368835;32;20317;-81
2022/04/22 09:30:32;;;;;;;;;;;;;;;13.94;58.70;98914.88;4382389;32;20010;-81
2022/04/22 09:33:00;;;;;;;;;;;;;;;13.96;58.63;98913.09;4376115;32;19990;-80
2022/04/22 09:35:28;;;;;;;;;;;;;;;13.82;59.92;98921.97;4369795;32;20005;-80
2022/04/22 09:43:34;;;;;;;;;;;;;;;13.84;60.49;98902.00;4379547;32;20021;-82
2022/04/22 09:46:04;;;;;;;;;;;;;;;13.69;60.85;98897.84;4383818;32;20285;-82
2022/04/22 09:48:41;;;;;;;;;;;;;;;13.98;58.74;98892.28;4384692;32;19979;-82
2022/04/22 09:51:19;;;;;;;;;;;;;;;13.96;59.85;98889.69;4385172;32;20777;-81
2022/04/22 09:53:46;;;;;;;;;;;;;;;14.06;60.03;98892.19;4385003;32;19999;-81
2022/04/22 09:56:16;;;;;;;;;;;;;;;14.01;60.03;98888.75;4384890;32;20032;-82
2022/04/22 09:58:43;;;;;;;;;;;;;;;13.94;60.69;98894.06;4383957;32;19994;-81
2022/04/22 10:01:09;;;;;;;;;;;;;;;14.19;59.67;98891.13;4385231;32;20008;-82
2022/04/22 10:03:37;;;;;;;;;;;;;;;14.35;60.07;98904.78;4384860;32;20406;-84
2022/04/22 10:06:04;;;;;;;;;;;;;;;14.30;58.82;98907.47;4385002;32;19982;-81
2022/04/22 10:08:31;;;;;;;;;;;;;;;14.01;59.66;98909.59;4384202;32;19979;-82
2022/04/22 10:10:59;;;;;;;;;;;;;;;13.82;59.42;98904.63;4389264;32;19986;-83
2022/04/22 10:13:46;;;;;;;;;;;;;;;13.98;59.02;98894.91;4384878;32;19991;-83
2022/04/22 10:16:16;;;;;;;;;;;;;;;14.04;60.46;98891.31;4384031;32;20355;-83
2022/04/22 10:18:43;;;;;;;;;;;;;;;14.36;58.21;98885.72;4378452;32;19990;-84
2022/04/22 10:21:09;;;;;;;;;;;;;;;14.15;58.88;98892.06;4384225;32;19979;-85
2022/04/22 10:23:42;;;;;;;;;;;;;;;14.49;57.55;98881.19;4384532;32;20008;-82
2022/04/22 10:26:09;;;;;;;;;;;;;;;14.42;57.39;98876.06;4383147;32;19986;-84
2022/04/22 10:28:36;;;;;;;;;;;;;;;14.27;57.86;98876.28;4384784;32;20061;-84
2022/04/22 10:31:03;;;;;;;;;;;;;;;14.59;57.14;98867.16;4383520;32;19997;-84
2022/04/22 10:33:40;;;;;;;;;;;;;;;14.88;54.66;98875.34;4382801;32;20001;-83
2022/04/22 10:36:11;;;;;;;;;;;;;;;14.70;55.17;98870.44;4384247;32;19978;-86
2022/04/22 10:38:39;;;;;;;;;;;;;;;14.79;55.75;98867.69;4384699;32;20028;-87
2022/04/22 10:41:21;;;;;;;;;;;;;;;14.84;55.29;98868.47;4384329;32;20002;-87
2022/04/22 10:49:40;;;;;;;;;;;;;;;14.49;56.31;98856.00;4384393;32;20388;-86
2022/04/22 10:52:10;;;;;;;;;;;;;;;14.50;56.64;98849.03;4385322;32;19982;-85
2022/04/22 10:54:52;;;;;;;;;;;;;;;14.36;56.75;98850.09;4380585;32;19987;-85
2022/04/22 10:57:23;;;;;;;;;;;;;;;14.49;57.15;98845.56;4362187;32;19999;-83
2022/04/22 11:00:04;;;;;;;;;;;;;;;14.32;56.71;98848.41;4362734;32;20006;-83
2022/04/22 11:02:33;;;;;;;;;;;;;;;14.20;57.63;98848.63;4356663;32;20007;-83
2022/04/22 11:07:46;;;;;;;;;;;;;;;14.53;56.90;98847.28;4355128;32;19994;-85
2022/04/22 11:10:14;;;;;;;;;;;;;;;14.62;55.81;98846.28;4341064;32;20589;-83
2022/04/22 11:12:57;;;;;;;;;;;;;;;14.35;57.48;98840.56;4351269;32;20002;-85
2022/04/22 11:15:42;;;;;;;;;;;;;;;14.46;56.51;98834.34;4045783;32;10004384;-84
2022/04/22 11:18:13;;;;;;;;;;;;;;;14.46;57.22;98832.59;4344759;32;20817;-85
2022/04/22 11:20:59;;;;;;;;;;;;;;;14.77;55.04;98830.38;4356409;32;19987;-86
2022/04/22 11:23:33;;;;;;;;;;;;;;;14.38;57.22;98822.28;4357524;32;20309;-85
2022/04/22 11:26:00;;;;;;;;;;;;;;;14.84;56.25;98821.56;4351118;32;20333;-86
2022/04/22 11:28:27;;;;;;;;;;;;;;;15.05;54.88;98822.91;4344846;32;20006;-86
2022/04/22 11:30:54;;;;;;;;;;;;;;;15.02;55.21;98819.50;4359449;32;19984;-85
2022/04/22 11:33:26;;;;;;;;;;;;;;;15.14;53.64;98819.28;4358693;32;20005;-82
2022/04/22 11:35:56;;;;;;;;;;;;;;;15.12;53.14;98815.84;4358827;32;19979;-85
2022/04/22 11:38:23;;;;;;;;;;;;;;;15.24;53.22;98820.81;4358969;32;20345;-84
2022/04/22 11:40:50;;;;;;;;;;;;;;;15.24;52.36;98813.00;4362205;32;20371;-85
2022/04/22 11:43:35;;;;;;;;;;;;;;;15.12;51.89;98821.06;4373036;32;20049;-84
2022/04/22 11:46:02;;;;;;;;;;;;;;;15.19;52.16;98817.47;4358089;32;19999;-84
2022/04/22 11:48:29;;;;;;;;;;;;;;;15.43;51.10;98815.25;4364224;32;20041;-85
2022/04/22 11:50:59;;;;;;;;;;;;;;;15.59;51.72;98816.66;4359397;32;19982;-85
2022/04/22 11:53:32;;;;;;;;;;;;;;;15.59;51.14;98816.66;4360675;32;20001;-85
2022/04/22 11:56:02;;;;;;;;;;;;;;;15.58;50.45;98804.50;4361522;32;20034;-86
2022/04/22 11:58:29;;;;;;;;;;;;;;;15.79;48.30;98796.28;4361849;32;20009;-85
2022/04/22 12:06:37;;;;;;;;;;;;;;;16.21;47.95;98780.53;4388965;32;19987;-85
2022/04/22 12:09:05;;;;;;;;;;;;;;;16.19;47.57;98779.69;4388528;32;19977;-85
2022/04/22 12:11:42;;;;;;;;;;;;;;;16.13;47.35;98772.00;4391674;32;19986;-86
2022/04/22 12:14:10;;;;;;;;;;;;;;;16.15;45.78;98765.00;4389736;32;20627;-83
2022/04/22 12:16:38;;;;;;;;;;;;;;;16.22;45.51;98761.34;4391748;32;20005;-84
2022/04/22 12:19:06;;;;;;;;;;;;;;;16.20;44.86;98752.66;4388440;32;20020;-85
2022/04/22 12:21:34;;;;;;;;;;;;;;;16.54;43.75;98748.38;4392879;32;20387;-85
2022/04/22 12:24:04;;;;;;;;;;;;;;;16.60;43.62;98741.25;4392571;32;19986;-84
2022/04/22 12:26:46;;;;;;;;;;;;;;;16.47;43.05;98727.63;4390005;32;19987;-85
2022/04/22 12:29:14;;;;;;;;;;;;;;;16.59;43.40;98733.44;4392883;32;20031;-85
2022/04/22 12:31:52;;;;;;;;;;;;;;;16.49;41.67;98744.09;4389446;32;20006;-84
2022/04/22 12:34:26;;;;;;;;;;;;;;;16.11;42.06;98746.81;4387308;32;19971;-86
2022/04/22 12:36:57;;;;;;;;;;;;;;;16.24;41.25;98753.44;4388897;32;20329;-85
2022/04/22 12:39:32;;;;;;;;;;;;;;;16.23;42.09;98746.53;4390902;32;20778;-84
2022/04/22 12:42:00;;;;;;;;;;;;;;;16.34;41.51;98746.28;4389534;32;20403;-84
2022/04/22 12:44:27;;;;;;;;;;;;;;;16.28;41.86;98740.28;4387186;32;20033;-84
2022/04/22 12:52:47;;;;;;;;;;;;;;;16.42;39.19;98726.03;4388115;32;19998;-84
2022/04/22 12:55:16;;;;;;;;;;;;;;;15.94;40.25;98723.72;4389446;32;20024;-84
2022/04/22 12:57:58;;;;;;;;;;;;;;;16.13;40.07;98709.34;4388905;32;20028;-85
2022/04/22 13:00:25;;;;;;;;;;;;;;;16.14;38.70;98726.72;4387890;32;20033;-88
2022/04/22 13:03:08;;;;;;;;;;;;;;;16.13;39.58;98711.94;4389127;32;20001;-87
2022/04/22 13:05:35;;;;;;;;;;;;;;;16.16;39.20;98722.31;4398141;32;20291;-87
2022/04/22 13:08:09;;;;;;;;;;;;;;;16.41;38.96;98719.09;4388173;32;21158;-85
2022/04/22 13:10:37;;;;;;;;;;;;;;;16.11;39.68;98705.91;4389565;32;19982;-86
2022/04/22 13:13:09;;;;;;;;;;;;;;;16.20;39.04;98710.91;4363866;32;788232;-85
2022/04/22 13:15:36;;;;;;;;;;;;;;;16.12;38.75;98717.22;4384191;32;20284;-86
2022/04/22 13:18:03;;;;;;;;;;;;;;;16.09;39.06;98705.09;4382332;32;20022;-85
2022/04/22 13:20:30;;;;;;;;;;;;;;;16.21;39.09;98691.75;4383114;32;19991;-85
2022/04/22 13:22:57;;;;;;;;;;;;;;;16.15;39.25;98697.13;4390492;32;19982;-86
2022/04/22 13:25:24;;;;;;;;;;;;;;;16.08;38.90;98695.56;4377945;32;19983;-86
2022/04/22 13:27:50;;;;;;;;;;;;;;;16.20;38.63;98700.44;4376270;32;19995;-87
2022/04/22 13:30:18;;;;;;;;;;;;;;;15.92;38.65;98699.41;4376812;32;20034;-85
2022/04/22 13:32:45;;;;;;;;;;;;;;;15.70;39.10;98699.94;4388208;32;20065;-88
2022/04/22 13:35:13;;;;;;;;;;;;;;;15.92;39.19;98699.41;4390727;32;20032;-87
2022/04/22 13:37:40;;;;;;;;;;;;;;;16.16;38.63;98693.59;4388564;32;21080;-86
2022/04/22 13:40:08;;;;;;;;;;;;;;;16.33;37.88;98700.16;4390522;32;20311;-87
2022/04/22 13:42:34;;;;;;;;;;;;;;;16.36;38.93;98694.84;4387268;32;20024;-86
2022/04/22 13:53:20;;;;;;;;;;;;;;;15.95;38.10;98709.78;4378872;32;20793;-86
2022/04/22 13:55:47;;;;;;;;;;;;;;;16.10;38.51;98698.97;4377003;32;20489;-83
2022/04/22 13:58:14;;;;;;;;;;;;;;;15.83;38.75;98689.22;4379317;32;20342;-83
2022/04/22 14:00:41;;;;;;;;;;;;;;;15.88;38.42;98692.56;4382560;32;20001;-82
2022/04/22 14:03:08;;;;;;;;;;;;;;;15.89;39.19;98679.50;4376944;32;20062;-83
2022/04/22 14:05:35;;;;;;;;;;;;;;;15.87;39.78;98685.62;4375261;32;19983;-83
2022/04/22 14:08:02;;;;;;;;;;;;;;;15.80;39.29;98670.13;4379748;32;19994;-80
2022/04/22 14:10:30;;;;;;;;;;;;;;;15.83;38.91;98678.78;4380635;32;20021;-81
2022/04/22 14:12:58;;;;;;;;;;;;;;;15.77;39.59;98679.78;4379277;32;20682;-81
2022/04/22 14:15:25;;;;;;;;;;;;;;;16.17;39.15;98663.97;4374308;32;20675;-84